Wetterstation Vordersexau
Wetterdaten: Woche 23.04.18 - 29.04.18 (KW17)
Datum Zeit Temp. A. Feuchte A. Luftdruck Regen Wind Richtung Taupunkt Windchill Windben
23.04.2018 00:00 15,9 C 66 % 1013,0 hPa 0,0 l/m 0,0 km/h NO 9,6 C 15,9 C 0,0 km/h
23.04.2018 01:00 15,7 C 67 % 1013,0 hPa 0,0 l/m 0,0 km/h NO 9,6 C 15,7 C 0,0 km/h
23.04.2018 02:00 15,4 C 68 % 1012,7 hPa 0,0 l/m 0,0 km/h O-SO 9,5 C 15,4 C 0,0 km/h
23.04.2018 03:00 15,0 C 69 % 1013,0 hPa 0,0 l/m 0,0 km/h O-SO 9,4 C 15,0 C 0,0 km/h
23.04.2018 04:00 14,3 C 70 % 1013,5 hPa 0,0 l/m 0,0 km/h O-NO 8,9 C 14,3 C 0,0 km/h
23.04.2018 05:00 13,9 C 71 % 1013,3 hPa 0,0 l/m 0,0 km/h O-SO 8,7 C 13,9 C 0,0 km/h
23.04.2018 06:00 13,5 C 73 % 1013,4 hPa 0,0 l/m 0,0 km/h NO 8,8 C 13,5 C 0,0 km/h
23.04.2018 07:00 14,6 C 73 % 1013,6 hPa 0,0 l/m 0,0 km/h NO 9,8 C 14,6 C 0,0 km/h
23.04.2018 08:00 18,3 C 66 % 1014,4 hPa 0,0 l/m 0,0 km/h N 11,8 C 18,3 C 0,0 km/h
23.04.2018 09:00 19,3 C 62 % 1015,0 hPa 0,0 l/m 0,0 km/h SO 11,8 C 19,3 C 0,0 km/h
23.04.2018 10:00 20,5 C 59 % 1014,8 hPa 0,0 l/m 0,0 km/h N 12,2 C 20,5 C 0,0 km/h
23.04.2018 11:00 18,1 C 71 % 1015,2 hPa 0,5 l/m 0,0 km/h W-SW 12,8 C 18,1 C 0,0 km/h
23.04.2018 12:00 15,9 C 80 % 1016,5 hPa 1,6 l/m 0,0 km/h O 12,5 C 15,9 C 0,0 km/h
23.04.2018 13:00 16,5 C 81 % 1015,8 hPa 0,0 l/m 0,0 km/h S-SO 13,2 C 16,5 C 0,0 km/h
23.04.2018 14:00 16,3 C 80 % 1015,9 hPa 1,0 l/m 0,0 km/h S-SO 12,8 C 16,3 C 0,0 km/h
23.04.2018 15:00 16,4 C 81 % 1016,1 hPa 0,5 l/m 0,0 km/h S-SO 13,1 C 16,4 C 0,0 km/h
23.04.2018 16:00 16,1 C 82 % 1016,3 hPa 0,5 l/m 0,0 km/h SO 13,0 C 16,1 C 0,0 km/h
23.04.2018 17:00 15,9 C 83 % 1016,1 hPa 0,5 l/m 0,0 km/h W-SW 13,0 C 15,9 C 0,0 km/h
23.04.2018 18:00 16,3 C 82 % 1015,8 hPa 0,5 l/m 0,0 km/h W-SW 13,2 C 16,3 C 0,0 km/h
23.04.2018 19:00 15,9 C 81 % 1015,6 hPa 0,0 l/m 0,0 km/h W-SW 12,6 C 15,9 C 0,0 km/h
23.04.2018 20:00 14,4 C 83 % 1016,4 hPa 0,0 l/m 0,0 km/h O-NO 11,5 C 14,4 C 0,0 km/h
23.04.2018 21:00 13,6 C 83 % 1017,0 hPa 0,0 l/m 0,0 km/h NO 10,8 C 13,6 C 0,0 km/h
23.04.2018 22:00 13,3 C 83 % 1016,9 hPa 0,0 l/m 0,0 km/h NO 10,5 C 13,3 C 0,0 km/h
23.04.2018 23:00 13,1 C 83 % 1017,4 hPa 0,0 l/m 0,0 km/h NO 10,3 C 13,1 C 0,0 km/h
24.04.2018 00:00 13,0 C 82 % 1017,4 hPa 0,0 l/m 0,0 km/h NO 10,0 C 13,0 C 0,0 km/h
24.04.2018 01:00 13,0 C 81 % 1017,1 hPa 0,0 l/m 0,0 km/h NO 9,8 C 13,0 C 0,0 km/h
24.04.2018 02:00 13,0 C 81 % 1017,1 hPa 0,0 l/m 0,0 km/h NO 9,8 C 13,0 C 0,0 km/h
24.04.2018 03:00 12,9 C 81 % 1017,1 hPa 0,0 l/m 0,0 km/h NO 9,7 C 12,9 C 0,0 km/h
24.04.2018 04:00 12,1 C 82 % 1017,4 hPa 0,0 l/m 0,0 km/h NO 9,1 C 12,1 C 0,0 km/h
24.04.2018 05:00 11,8 C 80 % 1016,9 hPa 0,0 l/m 0,0 km/h O-NO 8,5 C 11,8 C 0,0 km/h
24.04.2018 06:00 11,3 C 80 % 1017,1 hPa 0,0 l/m 0,0 km/h O-NO 8,0 C 11,3 C 0,0 km/h
24.04.2018 07:00 11,8 C 78 % 1017,3 hPa 0,0 l/m 0,0 km/h O-SO 8,1 C 11,8 C 0,0 km/h
24.04.2018 08:00 14,9 C 80 % 1017,6 hPa 0,0 l/m 0,0 km/h SW 11,5 C 14,9 C 0,0 km/h
24.04.2018 09:00 17,9 C 79 % 1017,4 hPa 0,0 l/m 0,0 km/h SW 14,2 C 17,9 C 0,0 km/h
24.04.2018 10:00 18,7 C 72 % 1017,2 hPa 0,0 l/m 13,0 km/h SW 13,5 C 16,2 C 7,2 km/h
24.04.2018 11:00 19,3 C 62 % 1017,1 hPa 0,0 l/m 2,6 km/h W-SW 11,8 C 19,3 C 1,4 km/h
24.04.2018 12:00 20,4 C 58 % 1016,5 hPa 0,0 l/m 0,0 km/h N-NW 11,9 C 20,4 C 0,0 km/h
24.04.2018 13:00 21,1 C 56 % 1016,1 hPa 0,0 l/m 0,0 km/h W 12,0 C 21,1 C 0,0 km/h
24.04.2018 14:00 21,4 C 50 % 1015,5 hPa 0,0 l/m 0,0 km/h W-SW 10,5 C 21,4 C 0,0 km/h
24.04.2018 15:00 21,6 C 50 % 1014,8 hPa 0,0 l/m 0,0 km/h SW 10,7 C 21,6 C 0,0 km/h
24.04.2018 16:00 22,5 C 47 % 1014,0 hPa 0,0 l/m 9,7 km/h W-SW 10,6 C 21,5 C 5,4 km/h
24.04.2018 17:00 23,3 C 43 % 1013,4 hPa 0,0 l/m 0,0 km/h SW 10,0 C 23,3 C 0,0 km/h
24.04.2018 18:00 22,7 C 44 % 1012,7 hPa 0,0 l/m 7,8 km/h W-SW 9,8 C 22,2 C 4,3 km/h
24.04.2018 19:00 20,9 C 48 % 1012,8 hPa 0,0 l/m 0,0 km/h S 9,5 C 20,9 C 0,0 km/h
24.04.2018 20:00 19,3 C 54 % 1013,0 hPa 0,0 l/m 0,0 km/h S-SO 9,8 C 19,3 C 0,0 km/h
24.04.2018 21:00 17,3 C 61 % 1013,2 hPa 0,0 l/m 0,0 km/h NO 9,7 C 17,3 C 0,0 km/h
24.04.2018 22:00 14,3 C 73 % 1013,1 hPa 0,0 l/m 0,0 km/h NO 9,5 C 14,3 C 0,0 km/h
24.04.2018 23:00 13,3 C 76 % 1012,7 hPa 0,0 l/m 0,0 km/h NO 9,2 C 13,3 C 0,0 km/h
25.04.2018 00:00 12,3 C 79 % 1012,3 hPa 0,0 l/m 0,0 km/h NO 8,8 C 12,3 C 0,0 km/h
25.04.2018 01:00 11,6 C 80 % 1012,2 hPa 0,0 l/m 0,0 km/h NO 8,3 C 11,6 C 0,0 km/h
25.04.2018 02:00 10,9 C 82 % 1012,0 hPa 0,0 l/m 0,0 km/h O-SO 7,9 C 10,9 C 0,0 km/h
25.04.2018 03:00 10,3 C 83 % 1011,9 hPa 0,0 l/m 0,0 km/h NO 7,5 C 10,3 C 0,0 km/h
25.04.2018 04:00 10,6 C 84 % 1011,6 hPa 0,0 l/m 0,0 km/h NO 8,0 C 10,6 C 0,0 km/h
25.04.2018 05:00 11,3 C 83 % 1011,1 hPa 0,0 l/m 0,0 km/h NO 8,5 C 11,3 C 0,0 km/h
25.04.2018 06:00 11,4 C 83 % 1010,9 hPa 0,0 l/m 0,0 km/h NO 8,6 C 11,4 C 0,0 km/h
25.04.2018 07:00 12,8 C 83 % 1011,4 hPa 0,0 l/m 0,0 km/h W-SW 10,0 C 12,8 C 0,0 km/h
25.04.2018 08:00 16,1 C 74 % 1011,9 hPa 0,0 l/m 0,0 km/h SW 11,5 C 16,1 C 0,0 km/h
25.04.2018 09:00 18,8 C 66 % 1012,1 hPa 0,0 l/m 35,6 km/h W-SW 12,3 C 12,4 C 19,8 km/h
25.04.2018 10:00 19,4 C 63 % 1012,4 hPa 0,0 l/m 30,5 km/h W-SW 12,2 C 13,8 C 16,9 km/h
25.04.2018 11:00 19,9 C 58 % 1012,2 hPa 0,0 l/m 48,0 km/h W-SW 11,4 C 13,0 C 26,6 km/h
25.04.2018 12:00 20,5 C 55 % 1012,2 hPa 0,0 l/m 31,1 km/h W 11,1 C 15,3 C 17,3 km/h
25.04.2018 13:00 21,9 C 48 % 1012,0 hPa 0,0 l/m 39,5 km/h SW 10,4 C 16,6 C 22,0 km/h
25.04.2018 14:00 22,1 C 49 % 1011,6 hPa 0,0 l/m 24,6 km/h W-SW 10,9 C 18,3 C 13,7 km/h
25.04.2018 15:00 22,7 C 46 % 1011,0 hPa 0,0 l/m 22,0 km/h S-SW 10,5 C 19,4 C 12,2 km/h
25.04.2018 16:00 21,9 C 48 % 1011,1 hPa 0,0 l/m 21,4 km/h W-SW 10,4 C 18,4 C 11,9 km/h
25.04.2018 17:00 20,8 C 51 % 1010,8 hPa 0,0 l/m 11,0 km/h W-NW 10,3 C 19,2 C 6,1 km/h
25.04.2018 18:00 20,9 C 52 % 1010,8 hPa 0,0 l/m 0,0 km/h NW 10,7 C 20,9 C 0,0 km/h
25.04.2018 19:00 19,8 C 53 % 1010,8 hPa 0,0 l/m 0,0 km/h W 9,9 C 19,8 C 0,0 km/h
25.04.2018 20:00 17,9 C 58 % 1011,5 hPa 0,0 l/m 0,0 km/h W 9,5 C 17,9 C 0,0 km/h
25.04.2018 21:00 15,9 C 62 % 1012,7 hPa 0,0 l/m 0,0 km/h W-SW 8,6 C 15,9 C 0,0 km/h
25.04.2018 22:00 15,3 C 66 % 1013,8 hPa 0,0 l/m 0,0 km/h SW 9,0 C 15,3 C 0,0 km/h
25.04.2018 23:00 14,6 C 66 % 1014,0 hPa 0,0 l/m 3,2 km/h W 8,3 C 14,6 C 1,8 km/h
26.04.2018 00:00 14,4 C 69 % 1014,4 hPa 0,0 l/m 2,6 km/h W 8,8 C 14,4 C 1,4 km/h
26.04.2018 01:00 12,1 C 80 % 1014,9 hPa 0,5 l/m 0,0 km/h O-NO 8,8 C 12,1 C 0,0 km/h
26.04.2018 02:00 11,4 C 83 % 1014,6 hPa 0,0 l/m 0,0 km/h S-SO 8,6 C 11,4 C 0,0 km/h
26.04.2018 03:00 11,3 C 83 % 1015,4 hPa 1,0 l/m 0,0 km/h N-NW 8,5 C 11,3 C 0,0 km/h
26.04.2018 04:00 9,9 C 84 % 1016,0 hPa 1,6 l/m 0,0 km/h SO 7,3 C 9,9 C 0,0 km/h
26.04.2018 05:00 9,9 C 84 % 1016,4 hPa 0,0 l/m 0,0 km/h SO 7,3 C 9,9 C 0,0 km/h
26.04.2018 06:00 9,6 C 84 % 1016,5 hPa 0,0 l/m 0,0 km/h O-NO 7,0 C 9,6 C 0,0 km/h
26.04.2018 07:00 10,3 C 84 % 1016,8 hPa 0,0 l/m 0,0 km/h SW 7,7 C 10,3 C 0,0 km/h
26.04.2018 08:00 11,5 C 84 % 1017,4 hPa 0,0 l/m 1,3 km/h N-NW 8,9 C 11,5 C 0,7 km/h
26.04.2018 09:00 11,6 C 75 % 1017,8 hPa 0,0 l/m 3,9 km/h W-NW 7,3 C 11,6 C 2,2 km/h
26.04.2018 10:00 12,1 C 72 % 1018,0 hPa 0,0 l/m 0,0 km/h W-NW 7,2 C 12,1 C 0,0 km/h
26.04.2018 11:00 13,1 C 66 % 1017,9 hPa 0,0 l/m 0,0 km/h O-NO 6,9 C 13,1 C 0,0 km/h
26.04.2018 12:00 14,3 C 62 % 1017,8 hPa 0,0 l/m 0,0 km/h N-NW 7,1 C 14,3 C 0,0 km/h
26.04.2018 13:00 14,8 C 57 % 1017,1 hPa 0,0 l/m 0,0 km/h N-NW 6,4 C 14,8 C 0,0 km/h
26.04.2018 14:00 15,6 C 53 % 1016,9 hPa 0,0 l/m 24,6 km/h N-NW 6,1 C 9,5 C 13,7 km/h
26.04.2018 15:00 16,1 C 49 % 1016,5 hPa 0,0 l/m 8,4 km/h W 5,4 C 15,1 C 4,7 km/h
26.04.2018 16:00 15,6 C 46 % 1016,3 hPa 0,0 l/m 0,0 km/h W 4,0 C 15,6 C 0,0 km/h
26.04.2018 17:00 16,3 C 43 % 1015,9 hPa 0,0 l/m 0,0 km/h N 3,7 C 16,3 C 0,0 km/h
26.04.2018 18:00 15,3 C 46 % 1015,8 hPa 0,0 l/m 0,0 km/h N 3,8 C 15,3 C 0,0 km/h
26.04.2018 19:00 14,7 C 47 % 1016,1 hPa 0,0 l/m 7,1 km/h N 3,5 C 14,3 C 4,0 km/h
26.04.2018 20:00 13,1 C 51 % 1016,5 hPa 0,0 l/m 0,0 km/h N 3,2 C 13,1 C 0,0 km/h
26.04.2018 21:00 10,9 C 63 % 1016,9 hPa 0,0 l/m 0,0 km/h N-NO 4,1 C 10,9 C 0,0 km/h
26.04.2018 22:00 9,6 C 65 % 1016,3 hPa 0,0 l/m 0,0 km/h N-NO 3,4 C 9,6 C 0,0 km/h
26.04.2018 23:00 8,7 C 69 % 1016,3 hPa 0,0 l/m 0,0 km/h N-NO 3,3 C 8,7 C 0,0 km/h
27.04.2018 00:00 8,1 C 73 % 1015,8 hPa 0,0 l/m 0,0 km/h N-NO 3,6 C 8,1 C 0,0 km/h
27.04.2018 01:00 7,3 C 75 % 1015,6 hPa 0,0 l/m 0,0 km/h O-NO 3,2 C 7,3 C 0,0 km/h
27.04.2018 02:00 7,0 C 77 % 1014,5 hPa 0,0 l/m 0,0 km/h O-NO 3,2 C 7,0 C 0,0 km/h
27.04.2018 03:00 6,6 C 77 % 1013,9 hPa 0,0 l/m 0,0 km/h O-NO 2,9 C 6,6 C 0,0 km/h
27.04.2018 04:00 6,4 C 77 % 1013,2 hPa 0,0 l/m 0,0 km/h NO 2,7 C 6,4 C 0,0 km/h
27.04.2018 05:00 5,9 C 79 % 1012,4 hPa 0,0 l/m 0,0 km/h NO 2,5 C 5,9 C 0,0 km/h
27.04.2018 06:00 5,2 C 80 % 1011,6 hPa 0,0 l/m 0,0 km/h NO 2,0 C 5,2 C 0,0 km/h
27.04.2018 07:00 6,8 C 81 % 1011,0 hPa 0,0 l/m 0,0 km/h N-NW 3,8 C 6,8 C 0,0 km/h
27.04.2018 08:00 10,0 C 73 % 1010,3 hPa 0,0 l/m 0,0 km/h W-SW 5,4 C 10,0 C 0,0 km/h
27.04.2018 09:00 12,4 C 68 % 1009,8 hPa 0,0 l/m 0,0 km/h W 6,7 C 12,4 C 0,0 km/h
27.04.2018 10:00 14,0 C 65 % 1009,2 hPa 0,0 l/m 1,9 km/h N-NW 7,5 C 14,0 C 1,1 km/h
27.04.2018 11:00 15,4 C 61 % 1009,0 hPa 0,0 l/m 11,0 km/h NO 7,9 C 13,1 C 6,1 km/h
27.04.2018 12:00 16,9 C 57 % 1008,0 hPa 0,0 l/m 0,0 km/h S 8,3 C 16,9 C 0,0 km/h
27.04.2018 13:00 18,1 C 54 % 1007,0 hPa 0,0 l/m 0,0 km/h S-SO 8,6 C 18,1 C 0,0 km/h
27.04.2018 14:00 19,4 C 51 % 1006,9 hPa 0,0 l/m 0,0 km/h S-SO 9,0 C 19,4 C 0,0 km/h
27.04.2018 15:00 21,3 C 48 % 1005,8 hPa 0,0 l/m 9,1 km/h SW 9,8 C 20,4 C 5,0 km/h
27.04.2018 16:00 22,4 C 43 % 1005,1 hPa 0,0 l/m 0,0 km/h W-SW 9,2 C 22,4 C 0,0 km/h
27.04.2018 17:00 23,3 C 36 % 1005,4 hPa 0,0 l/m 21,4 km/h W-SW 7,4 C 20,3 C 11,9 km/h
27.04.2018 18:00 23,3 C 37 % 1005,8 hPa 0,0 l/m 24,0 km/h W-SW 7,8 C 20,0 C 13,3 km/h
27.04.2018 19:00 21,5 C 41 % 1006,4 hPa 0,0 l/m 16,8 km/h W-SW 7,7 C 18,7 C 9,4 km/h
27.04.2018 20:00 19,5 C 35 % 1007,4 hPa 0,0 l/m 7,8 km/h W-SW 3,6 C 18,9 C 4,3 km/h
27.04.2018 21:00 17,4 C 41 % 1008,1 hPa 0,0 l/m 0,0 km/h NO 4,0 C 17,4 C 0,0 km/h
27.04.2018 22:00 13,9 C 55 % 1008,6 hPa 0,0 l/m 0,0 km/h NO 5,0 C 13,9 C 0,0 km/h
27.04.2018 23:00 12,2 C 60 % 1009,4 hPa 0,0 l/m 0,0 km/h O-NO 4,7 C 12,2 C 0,0 km/h
28.04.2018 00:00 11,7 C 64 % 1010,1 hPa 0,0 l/m 0,0 km/h NO 5,1 C 11,7 C 0,0 km/h
28.04.2018 01:00 11,4 C 67 % 1010,0 hPa 0,0 l/m 0,0 km/h O-NO 5,5 C 11,4 C 0,0 km/h
28.04.2018 02:00 11,3 C 70 % 1010,1 hPa 0,0 l/m 0,0 km/h NO 6,0 C 11,3 C 0,0 km/h
28.04.2018 03:00 11,3 C 71 % 1010,2 hPa 0,0 l/m 0,0 km/h O-SO 6,2 C 11,3 C 0,0 km/h
28.04.2018 04:00 11,4 C 72 % 1010,5 hPa 0,0 l/m 0,0 km/h O 6,5 C 11,4 C 0,0 km/h
28.04.2018 05:00 11,3 C 73 % 1010,7 hPa 0,0 l/m 0,0 km/h O 6,6 C 11,3 C 0,0 km/h
28.04.2018 06:00 11,2 C 75 % 1011,3 hPa 0,0 l/m 0,0 km/h O 6,9 C 11,2 C 0,0 km/h
28.04.2018 07:00 11,5 C 76 % 1011,9 hPa 0,0 l/m 0,0 km/h SO 7,4 C 11,5 C 0,0 km/h
28.04.2018 08:00 12,7 C 76 % 1012,2 hPa 0,0 l/m 0,0 km/h W-SW 8,6 C 12,7 C 0,0 km/h
28.04.2018 09:00 12,3 C 80 % 1012,2 hPa 0,5 l/m 0,0 km/h W-NW 8,9 C 12,3 C 0,0 km/h
28.04.2018 10:00 12,1 C 82 % 1012,0 hPa 1,0 l/m 0,0 km/h N-NO 9,1 C 12,1 C 0,0 km/h
28.04.2018 11:00 13,3 C 81 % 1011,3 hPa 0,0 l/m 0,0 km/h W-NW 10,1 C 13,3 C 0,0 km/h
28.04.2018 12:00 15,3 C 75 % 1010,9 hPa 0,0 l/m 0,0 km/h N 10,9 C 15,3 C 0,0 km/h
28.04.2018 13:00 17,1 C 68 % 1009,9 hPa 0,0 l/m 0,0 km/h N-NW 11,1 C 17,1 C 0,0 km/h
28.04.2018 14:00 18,4 C 63 % 1008,8 hPa 0,0 l/m 0,0 km/h W 11,2 C 18,4 C 0,0 km/h
28.04.2018 15:00 19,6 C 58 % 1008,0 hPa 0,0 l/m 0,0 km/h W 11,1 C 19,6 C 0,0 km/h
28.04.2018 16:00 20,1 C 55 % 1007,5 hPa 0,0 l/m 3,9 km/h NW 10,8 C 20,1 C 2,2 km/h
28.04.2018 17:00 20,3 C 53 % 1007,2 hPa 0,0 l/m 3,9 km/h N-NW 10,4 C 20,3 C 2,2 km/h
28.04.2018 18:00 18,2 C 55 % 1007,4 hPa 0,0 l/m 6,5 km/h N-NO 9,0 C 18,2 C 3,6 km/h
28.04.2018 19:00 17,4 C 56 % 1007,7 hPa 0,0 l/m 0,0 km/h N-NW 8,5 C 17,4 C 0,0 km/h
28.04.2018 20:00 15,9 C 59 % 1008,1 hPa 0,0 l/m 5,8 km/h N 7,9 C 15,9 C 3,2 km/h
28.04.2018 21:00 14,7 C 57 % 1009,0 hPa 0,0 l/m 12,3 km/h N-NW 6,3 C 11,8 C 6,8 km/h
28.04.2018 22:00 13,3 C 63 % 1009,5 hPa 0,0 l/m 0,0 km/h N 6,4 C 13,3 C 0,0 km/h
28.04.2018 23:00 11,7 C 76 % 1008,4 hPa 0,0 l/m 0,0 km/h SO 7,6 C 11,7 C 0,0 km/h
29.04.2018 00:00 11,2 C 79 % 1008,1 hPa 0,0 l/m 0,0 km/h O-SO 7,7 C 11,2 C 0,0 km/h
29.04.2018 01:00 10,9 C 81 % 1008,0 hPa 0,0 l/m 0,0 km/h W-SW 7,8 C 10,9 C 0,0 km/h
29.04.2018 02:00 9,9 C 83 % 1008,1 hPa 0,0 l/m 1,9 km/h W-SW 7,2 C 9,9 C 1,1 km/h
29.04.2018 03:00 10,3 C 84 % 1006,5 hPa 0,0 l/m 0,0 km/h SO 7,7 C 10,3 C 0,0 km/h
29.04.2018 04:00 9,3 C 84 % 1006,2 hPa 0,0 l/m 0,0 km/h SO 6,7 C 9,3 C 0,0 km/h
29.04.2018 05:00 8,5 C 84 % 1006,1 hPa 0,0 l/m 0,0 km/h O-SO 6,0 C 8,5 C 0,0 km/h
29.04.2018 06:00 8,9 C 84 % 1006,0 hPa 0,0 l/m 0,0 km/h O-NO 6,3 C 8,9 C 0,0 km/h
29.04.2018 07:00 10,1 C 83 % 1006,0 hPa 0,5 l/m 0,0 km/h W 7,3 C 10,1 C 0,0 km/h
29.04.2018 08:00 10,8 C 84 % 1005,3 hPa 0,0 l/m 0,0 km/h SO 8,2 C 10,8 C 0,0 km/h
29.04.2018 09:00 11,3 C 84 % 1005,0 hPa 0,0 l/m 0,0 km/h N-NW 8,7 C 11,3 C 0,0 km/h
29.04.2018 10:00 13,8 C 82 % 1004,8 hPa 0,0 l/m 0,0 km/h SW 10,8 C 13,8 C 0,0 km/h
29.04.2018 11:00 15,8 C 80 % 1004,0 hPa 0,0 l/m 0,0 km/h N-NW 12,4 C 15,8 C 0,0 km/h
29.04.2018 12:00 17,9 C 74 % 1003,0 hPa 0,0 l/m 0,0 km/h W 13,2 C 17,9 C 0,0 km/h
29.04.2018 13:00 19,6 C 69 % 1002,0 hPa 0,0 l/m 0,0 km/h N-NW 13,8 C 19,6 C 0,0 km/h
29.04.2018 14:00 20,9 C 66 % 1000,6 hPa 0,0 l/m 0,0 km/h N-NW 14,3 C 20,9 C 0,0 km/h
29.04.2018 15:00 21,8 C 63 % 999,5 hPa 0,0 l/m 0,0 km/h W-SW 14,4 C 21,8 C 0,0 km/h
29.04.2018 16:00 22,2 C 64 % 998,3 hPa 0,0 l/m 0,0 km/h W-SW 15,1 C 22,2 C 0,0 km/h
29.04.2018 17:00 21,6 C 68 % 997,5 hPa 0,0 l/m 0,0 km/h W-SW 15,4 C 21,6 C 0,0 km/h
29.04.2018 18:00 21,5 C 70 % 996,4 hPa 0,0 l/m 0,0 km/h S-SO 15,8 C 21,5 C 0,0 km/h
29.04.2018 19:00 20,3 C 74 % 995,7 hPa 0,0 l/m 0,0 km/h O-NO 15,5 C 20,3 C 0,0 km/h
29.04.2018 20:00 18,7 C 79 % 994,9 hPa 0,0 l/m 0,0 km/h O-SO 15,0 C 18,7 C 0,0 km/h
29.04.2018 21:00 17,3 C 79 % 994,9 hPa 0,0 l/m 0,0 km/h W-SW 13,6 C 17,3 C 0,0 km/h
29.04.2018 22:00 17,7 C 78 % 996,1 hPa 0,0 l/m 0,0 km/h NW 13,8 C 17,7 C 0,0 km/h
29.04.2018 23:00 17,8 C 66 % 997,7 hPa 0,0 l/m 33,7 km/h W-SW 11,4 C 11,1 C 18,7 km/h
Min-Datum _ 27.04.18 27.04.18 29.04.18 - 23.04.18 - 27.04.18 27.04.18 23.04.18
_ Min-Zeit 06:53 20:53 20:53 - 00:53 - 06:53 06:53 00:53
Minimum _ 5,2 C 35 % 994,9 hPa - 0,0 km/h - 2,0 C 5,2 C 0,0 km/h
Max-Datum _ 24.04.18 25.04.18 26.04.18 23.04.18 25.04.18 - 29.04.18 24.04.18 25.04.18
_ Max-Zeit 17:53 04:53 10:53 12:53 11:53 - 18:53 17:53 11:53
Maximum _ 23,3 C 84 % 1018,0 hPa 1,6 l/m 48,0 km/h
W-SW
- 15,8 C 23,3 C 26,6 km/h
W-SW
Durchschnitt _ 15,1 C 68 % 1011,5 hPa #10,4 l/m 3,0 km/h NO 8,9 C 14,6 C 1,7 km/h
www.sexauwetter.de